Savoonga, AK

2:40 AM AKDT on September 30, 2014 (GMT -0800)
Savoonga | Change Station
CLOSE
Current Station
Airport
Location: Savoonga,
Elevation: 52 ft
Nearby Weather Stations

Elev 52 ft 63.69 °N, 170.49 °W | Updated 4 minutes ago

Scattered Clouds
Scattered Clouds
43 °F
Feels Like 35 °F
N
17
Wind Variable Wind from WSW

Today
High -- | Low -- °F
--% Chance of Precip.
Yesterday
High -- | Low -- °F
Precip. -- in
9:24 AM 8:50 PM
Waxing Crescent, 35% visible
Pressure 30.25 in
Visibility 10.0 miles
Clouds Scattered Clouds 10000 ft
Windchill 35 °F
Dew Point 36 °F
Humidity 76%
Rainfall 0.00 in
Snow Depth 0 in , 1 in , 1 in
UV 0 out of 12
Pollen Not available.
Air Quality Not available.
Flu Activity Not available.
METAR PASA 301036Z AUTO 24015KT 10SM SCT100 06/02 A3025 RMK AO1

More Conditions Fewer Conditions

Pressure 30.25 in
Visibility 10.0 miles
Clouds Scattered Clouds 10000 ft
Windchill 35 °F
Dew Point 36 °F
Humidity 76%
Rainfall 0.00 in
Snow Depth 0 in , 1 in , 1 in
UV 0 out of 12
Pollen Not available.
Air Quality Not available.
Flu Activity Not available.
METAR PASA 301036Z AUTO 24015KT 10SM SCT100 06/02 A3025 RMK AO1

More Conditions Fewer Conditions

10-Day Weather Forecast

Almanac

Astronomy

Sep. 30, 2014 Rise Set
Actual Time 9:24 AM AKDT 8:50 PM AKDT
Civil Twilight 8:38 AM AKDT 9:36 PM AKDT
Nautical Twilight 7:43 AM AKDT 10:30 PM AKDT
Astronomical Twilight 6:44 AM AKDT 11:29 PM AKDT
Moon 5:19 PM AKDT No Moon Set
Length of Visible Light 12h 57m
Length of Day
11h 26m
Tomorrow will be 6m 11s shorter.
Waxing Crescent, 35% of the Moon is Illuminated
Today
Waxing Crescent
Oct 1
First Quarter
Oct 8
Full
Oct 15
Last Quarter
Oct 23
New

Today's Extremes

State Highs State Lows

Community

WunderPhotos

Upload Photos

1,757,609 photos uploaded!

WunderBlogs® & News

Nearby

Snow Depth

Station Depth Elevation
MF Bradley River 2 in 2300 ft
Summit Creek 0 in 1400 ft
Turnagain Pass 1 in 1880 ft
Cooper Lake 1 in 1200 ft
Eagle Summit 1 in 3650 ft

Earthquake Activity

City Distance Mag. Time & Date
No recent earthquake activity has been reported nearby.
Minimum magnitude displayed is 2.5.

Coastal Water Temperatures

Place Temperature
No Stations Reporting

Nearby Weather Stations